Terminal Aerodrome Forecast
Issued by NWS Blacksburg, VA

Current Version | Previous Version | Graphics & Text | Print | Product List | Glossary On
Versions: 1 2 3 4 5 6 7 8 9 10 11 12 13 14 15 16 17 18 19 20 21 22 23
000
FTUS41 KRNK 240858 AAA
TAFBLF
TAF AMD
KBLF 240858Z 2409/2506 27007KT P6SM SCT005 OVC014
      TEMPO 2409/2412 OVC005
     FM241400 27004KT P6SM SCT060=

USA.gov is the U.S. government's official web portal to all federal, state and local government web resources and services.